This is the latest recevied weather packets stored in our database for station/object EA3CO-11. If no packets are shown the sender has not sent any weather packets the latest 10 day(s).
| Time | Temp. | Humidity | Pressure | Rain* | Wind** | Luminosity | Snow |
|---|---|---|---|---|---|---|---|
| 1777586537 | 16.67° C | 81% | 1021.5 hPa | - | - | - | - |
| 1777585636 | 16.67° C | 81% | 1021.6 hPa | - | - | - | - |
| 1777584736 | 16.67° C | 79% | 1021.6 hPa | - | - | - | - |
| 1777583836 | 17.22° C | 76% | 1021.4 hPa | - | - | - | - |
| 1777582936 | 17.22° C | 73% | 1021.3 hPa | - | - | - | - |
| 1777582036 | 17.22° C | 71% | 1021.1 hPa | - | - | - | - |
| 1777581135 | 17.22° C | 69% | 1020.9 hPa | - | - | - | - |
| 1777580235 | 17.22° C | 71% | 1020.8 hPa | - | - | - | - |
| 1777579335 | 17.22° C | 72% | 1020.6 hPa | - | - | - | - |
| 1777578435 | 16.67° C | 87% | 1020.5 hPa | - | - | - | - |
| 1777577535 | 16.67° C | 96% | 1020.3 hPa | - | - | - | - |
| 1777576635 | 16.11° C | 100% | 1020.1 hPa | - | - | - | - |
| 1777575735 | 16.11° C | 100% | 1020 hPa | - | - | - | - |
| 1777574835 | 16.11° C | 100% | 1019.9 hPa | - | - | - | - |
| 1777573934 | 16.67° C | 98% | 1019.6 hPa | - | - | - | - |
| 1777573034 | 16.67° C | 94% | 1019.3 hPa | - | - | - | - |
| 1777572134 | 16.67° C | 93% | 1019.2 hPa | - | - | - | - |
| 1777571231 | 17.22° C | 89% | 1019.1 hPa | - | - | - | - |
| 1777570331 | 17.22° C | 87% | 1019.3 hPa | - | - | - | - |
| 1777569428 | 17.78° C | 80% | 1019.1 hPa | - | - | - | - |
| 1777568524 | 18.89° C | 73% | 1019.3 hPa | - | - | - | - |
| 1777567624 | 19.44° C | 66% | 1019.2 hPa | - | - | - | - |
| 1777566724 | 20° C | 64% | 1019.3 hPa | - | - | - | - |
| 1777565824 | 20° C | 64% | 1019.3 hPa | - | - | - | - |
| 1777564923 | 20° C | 64% | 1019.5 hPa | - | - | - | - |
* Rain since midnight (hover to see other rain measurements)
** Current wind speed in m/s (hover to see current wind gust speed)